createdAt,value
2023-01-01T00:01:23.641Z,77.00
2023-01-01T00:03:56.516Z,79.60
2023-01-01T00:06:24.788Z,105.20
2023-01-01T00:08:52.469Z,91.60
2023-01-01T00:11:20.050Z,136.10
2023-01-01T00:13:49.822Z,121.70
2023-01-01T00:16:17.451Z,124.30
2023-01-01T00:18:45.058Z,113.90
2023-01-01T00:21:14.360Z,109.90
2023-01-01T00:23:42.002Z,101.90
2023-01-01T00:26:14.728Z,99.40
2023-01-01T00:28:42.988Z,89.60
2023-01-01T00:31:12.445Z,96.80
2023-01-01T00:33:40.206Z,97.10
2023-01-01T00:36:09.688Z,96.50
2023-01-01T00:38:37.608Z,93.80
2023-01-01T00:41:05.698Z,89.80
2023-01-01T00:43:34.463Z,85.20
2023-01-01T00:46:02.838Z,78.30
2023-01-01T00:48:30.590Z,73.10
2023-01-01T00:50:58.399Z,61.80
2023-01-01T00:53:26.279Z,65.80
2023-01-01T00:55:53.882Z,71.30
2023-01-01T00:58:22.834Z,68.20
2023-01-01T01:00:52.010Z,70.10
2023-01-01T01:03:20.015Z,68.30
2023-01-01T01:05:47.709Z,71.40
2023-01-01T01:08:15.355Z,65.20
2023-01-01T01:10:42.948Z,71.70
2023-01-01T01:13:10.542Z,72.20
2023-01-01T01:15:38.820Z,74.60
2023-01-01T01:18:06.466Z,73.50
2023-01-01T01:20:34.083Z,72.10
2023-01-01T01:23:01.781Z,67.20
2023-01-01T01:25:29.367Z,68.10
2023-01-01T01:27:57.112Z,67.10
2023-01-01T01:30:24.758Z,67.90
2023-01-01T01:32:52.352Z,60.40
2023-01-01T01:35:19.928Z,54.10
2023-01-01T01:37:47.503Z,62.60
2023-01-01T01:40:15.150Z,59.70
2023-01-01T01:42:46.259Z,62.30
2023-01-01T01:45:15.038Z,54.10
2023-01-01T01:47:50.258Z,58.80
2023-01-01T01:50:36.144Z,57.40
2023-01-01T01:53:05.833Z,57.10
2023-01-01T01:55:37.916Z,60.90
2023-01-01T01:58:08.349Z,56.00
2023-01-01T02:00:36.124Z,57.00
2023-01-01T02:03:09.403Z,62.10
2023-01-01T02:05:38.339Z,61.80
2023-01-01T02:08:06.894Z,60.20
2023-01-01T02:10:34.748Z,60.90
2023-01-01T02:13:02.608Z,56.80
2023-01-01T02:15:37.712Z,56.30
2023-01-01T02:18:19.437Z,56.20
2023-01-01T02:21:04.766Z,52.10
2023-01-01T02:23:54.258Z,52.80
2023-01-01T02:26:46.330Z,52.40
2023-01-01T02:29:31.801Z,49.90
2023-01-01T02:32:04.289Z,51.60
2023-01-01T02:34:36.800Z,50.40
2023-01-01T02:37:07.277Z,51.10
2023-01-01T02:39:39.752Z,51.50
2023-01-01T02:42:08.222Z,53.30
2023-01-01T02:44:40.760Z,52.70
2023-01-01T02:47:12.054Z,51.90
2023-01-01T02:49:48.426Z,52.80
2023-01-01T02:52:32.737Z,54.40
2023-01-01T02:55:12.181Z,52.40
2023-01-01T02:57:46.287Z,52.60
2023-01-01T03:00:17.857Z,53.30
2023-01-01T03:06:08.463Z,52.10
2023-01-01T03:09:03.919Z,50.70
2023-01-01T03:11:41.273Z,54.00
2023-01-01T03:14:39.565Z,50.60
2023-01-01T03:17:20.777Z,52.30
2023-01-01T03:19:50.956Z,53.50
2023-01-01T03:22:22.048Z,48.40
2023-01-01T03:24:59.173Z,41.60
2023-01-01T03:27:55.984Z,37.90
2023-01-01T03:30:23.939Z,38.80
2023-01-01T03:33:00.858Z,41.40
2023-01-01T03:35:34.670Z,41.30
2023-01-01T03:38:05.569Z,41.00
2023-01-01T03:40:36.935Z,44.00
2023-01-01T03:43:20.248Z,40.30
2023-01-01T03:45:50.721Z,42.30
2023-01-01T03:48:19.147Z,41.80
2023-01-01T03:51:05.346Z,43.20
2023-01-01T03:53:40.930Z,41.60
2023-01-01T03:56:40.745Z,43.20
2023-01-01T03:59:18.366Z,41.40
2023-01-01T04:01:57.156Z,41.40
2023-01-01T04:04:26.530Z,42.90
2023-01-01T04:06:55.089Z,45.30
2023-01-01T04:09:32.626Z,39.70
2023-01-01T04:12:00.469Z,43.00
2023-01-01T04:14:32.310Z,43.40
2023-01-01T04:17:01.654Z,43.70
2023-01-01T04:19:29.319Z,41.60
2023-01-01T04:21:57.558Z,44.70
2023-01-01T04:24:25.674Z,43.00
2023-01-01T04:26:53.746Z,43.30
2023-01-01T04:29:22.272Z,42.40
2023-01-01T04:31:50.214Z,44.20
2023-01-01T04:34:18.331Z,42.00
2023-01-01T04:36:46.636Z,41.10
2023-01-01T04:39:14.273Z,41.00
2023-01-01T04:41:41.881Z,40.60
2023-01-01T04:44:09.472Z,42.20
2023-01-01T04:46:37.074Z,42.70
2023-01-01T04:49:04.660Z,40.60
2023-01-01T04:51:32.261Z,40.20
2023-01-01T04:53:59.920Z,42.30
2023-01-01T04:56:27.842Z,40.90
2023-01-01T04:58:55.573Z,40.00
2023-01-01T05:01:25.612Z,34.30
2023-01-01T05:03:54.703Z,35.10
2023-01-01T05:06:23.325Z,33.70
2023-01-01T05:08:53.171Z,33.80
2023-01-01T05:11:26.461Z,34.00
2023-01-01T05:13:56.247Z,33.90
2023-01-01T05:16:32.176Z,34.80
2023-01-01T05:19:00.210Z,35.30
2023-01-01T05:21:30.510Z,35.70
2023-01-01T05:24:01.061Z,36.70
2023-01-01T05:26:32.142Z,31.90
2023-01-01T05:29:01.406Z,32.60
2023-01-01T05:31:34.143Z,34.20
2023-01-01T05:36:32.874Z,31.80
2023-01-01T05:39:00.476Z,35.30
2023-01-01T05:41:28.102Z,23.30
2023-01-01T05:43:55.745Z,29.10
2023-01-01T05:46:25.025Z,30.30
2023-01-01T05:48:53.873Z,29.50
2023-01-01T05:51:24.645Z,31.00
2023-01-01T05:53:53.727Z,29.30
2023-01-01T05:56:21.899Z,27.80
2023-01-01T05:58:49.558Z,29.60
2023-01-01T06:01:25.986Z,26.90
2023-01-01T06:03:55.655Z,28.30
2023-01-01T06:06:29.096Z,28.90
2023-01-01T06:09:01.857Z,27.30
2023-01-01T06:11:30.994Z,23.70
2023-01-01T06:14:00.411Z,23.80
2023-01-01T06:16:29.905Z,28.20
2023-01-01T06:18:57.900Z,26.50
2023-01-01T06:21:27.586Z,26.70
2023-01-01T06:23:57.911Z,27.70
2023-01-01T06:26:33.096Z,25.40
2023-01-01T06:29:01.736Z,27.70
2023-01-01T06:31:34.028Z,24.90
2023-01-01T06:34:04.542Z,28.90
2023-01-01T06:36:32.213Z,26.10
2023-01-01T06:38:59.789Z,27.50
2023-01-01T06:41:28.182Z,27.40
2023-01-01T06:43:56.974Z,25.30
2023-01-01T06:46:27.380Z,23.10
2023-01-01T06:49:01.086Z,25.50
2023-01-01T06:51:31.066Z,27.60
2023-01-01T06:54:01.144Z,26.80
2023-01-01T06:56:29.720Z,26.10
2023-01-01T06:58:57.646Z,26.00
2023-01-01T07:01:28.345Z,26.20
2023-01-01T07:04:01.765Z,26.40
2023-01-01T07:06:31.713Z,25.20
2023-01-01T07:08:59.476Z,29.40
2023-01-01T07:11:28.147Z,27.20
2023-01-01T07:13:55.839Z,31.00
2023-01-01T07:16:24.523Z,47.40
2023-01-01T07:18:52.324Z,32.70
2023-01-01T07:21:29.929Z,30.00
2023-01-01T07:24:03.999Z,28.60
2023-01-01T07:26:33.243Z,28.70
2023-01-01T07:29:08.734Z,27.40
2023-01-01T07:31:38.892Z,22.70
2023-01-01T07:34:08.092Z,23.00
2023-01-01T07:36:35.797Z,24.10
2023-01-01T07:39:03.573Z,23.90
2023-01-01T07:41:31.182Z,24.20
2023-01-01T07:43:58.911Z,23.90
2023-01-01T07:46:26.713Z,23.40
2023-01-01T07:48:54.364Z,22.90
2023-01-01T07:51:21.952Z,24.80
2023-01-01T07:53:49.604Z,23.60
2023-01-01T07:56:17.640Z,29.60
2023-01-01T07:58:45.343Z,25.40
2023-01-01T08:01:14.150Z,24.90
2023-01-01T08:03:42.166Z,23.40
2023-01-01T08:06:12.061Z,24.80
2023-01-01T08:08:40.482Z,21.70
2023-01-01T08:11:08.798Z,21.40
2023-01-01T08:13:36.393Z,25.20
2023-01-01T08:16:04.658Z,27.20
2023-01-01T08:18:32.270Z,25.90
2023-01-01T08:20:59.898Z,24.60
2023-01-01T08:23:27.492Z,26.90
2023-01-01T08:25:59.192Z,24.20
2023-01-01T08:28:27.268Z,21.50
2023-01-01T08:30:55.020Z,25.50
2023-01-01T08:33:22.692Z,21.40
2023-01-01T08:35:54.308Z,24.60
2023-01-01T08:38:22.641Z,24.10
2023-01-01T08:40:50.407Z,25.10
2023-01-01T08:43:18.554Z,23.10
2023-01-01T08:45:46.325Z,23.60
2023-01-01T08:48:14.002Z,17.70
2023-01-01T08:50:41.607Z,22.90
2023-01-01T08:53:09.325Z,24.00
2023-01-01T08:55:36.969Z,22.20
2023-01-01T08:58:07.523Z,22.90
2023-01-01T09:00:35.375Z,25.30
2023-01-01T09:03:03.220Z,20.70
2023-01-01T09:05:30.968Z,22.40
2023-01-01T09:07:58.611Z,22.70
2023-01-01T09:10:26.314Z,23.20
2023-01-01T09:12:54.061Z,23.50
2023-01-01T09:15:21.722Z,23.80
2023-01-01T09:17:49.278Z,25.90
2023-01-01T09:20:16.869Z,24.90
2023-01-01T09:22:44.509Z,23.40
2023-01-01T09:25:12.094Z,26.80
2023-01-01T09:27:39.876Z,25.90
2023-01-01T09:30:08.459Z,21.40
2023-01-01T09:32:36.243Z,22.00
2023-01-01T09:35:04.189Z,22.60
2023-01-01T09:37:31.881Z,20.20
2023-01-01T09:39:59.538Z,20.50
2023-01-01T09:42:45.329Z,19.80
2023-01-01T09:45:31.753Z,18.90
2023-01-01T09:48:10.009Z,18.20
2023-01-01T09:50:41.384Z,20.00
2023-01-01T09:53:34.504Z,19.70
2023-01-01T09:56:04.995Z,19.20
2023-01-01T09:58:35.115Z,19.20
2023-01-01T10:01:12.204Z,20.10
2023-01-01T10:03:43.013Z,20.40
2023-01-01T10:06:25.783Z,18.70
2023-01-01T10:09:17.701Z,20.80
2023-01-01T10:12:01.328Z,22.40
2023-01-01T10:15:01.385Z,19.50
2023-01-01T10:17:34.892Z,20.00
2023-01-01T10:20:07.525Z,22.20
2023-01-01T10:22:44.305Z,22.10
2023-01-01T10:25:25.375Z,21.40
2023-01-01T10:27:59.574Z,31.00
2023-01-01T10:30:29.450Z,24.60
2023-01-01T10:32:57.928Z,20.90
2023-01-01T10:35:34.464Z,20.40
2023-01-01T10:38:04.480Z,18.30
2023-01-01T10:40:32.601Z,15.70
2023-01-01T10:43:01.777Z,19.10
2023-01-01T10:45:32.454Z,17.80
2023-01-01T10:48:23.813Z,16.90
2023-01-01T10:50:51.459Z,17.00
2023-01-01T10:53:32.547Z,17.40
2023-01-01T10:56:12.392Z,21.00
2023-01-01T10:58:43.743Z,25.20
2023-01-01T11:01:17.511Z,18.80
2023-01-01T11:04:15.849Z,17.70
2023-01-01T11:06:45.321Z,15.80
2023-01-01T11:09:24.634Z,14.60
2023-01-01T11:12:07.164Z,17.90
2023-01-01T11:14:50.991Z,16.90
2023-01-01T11:17:28.522Z,15.10
2023-01-01T11:20:02.158Z,16.10
2023-01-01T11:22:39.141Z,17.80
2023-01-01T11:25:25.140Z,16.90
2023-01-01T11:28:12.153Z,17.10
2023-01-01T11:30:40.006Z,15.80
2023-01-01T11:33:16.657Z,17.60
2023-01-01T11:35:54.639Z,17.30
2023-01-01T11:38:29.450Z,15.70
2023-01-01T11:41:07.139Z,17.10
2023-01-01T11:43:43.639Z,15.60
2023-01-01T11:46:18.345Z,15.40
2023-01-01T11:48:46.070Z,15.70
2023-01-01T11:51:30.236Z,17.10
2023-01-01T11:54:23.436Z,18.20
2023-01-01T11:56:55.085Z,16.20
2023-01-01T11:59:28.551Z,16.90
2023-01-01T12:02:04.858Z,17.00
2023-01-01T12:04:54.873Z,19.70
2023-01-01T12:07:28.181Z,19.20
2023-01-01T12:10:01.599Z,18.10
2023-01-01T12:12:42.046Z,16.70
2023-01-01T12:15:25.623Z,17.50
2023-01-01T12:18:10.760Z,18.40
2023-01-01T12:20:44.177Z,17.00
2023-01-01T12:23:15.469Z,18.90
2023-01-01T12:25:50.274Z,18.00
2023-01-01T12:28:33.150Z,19.00
2023-01-01T12:31:09.058Z,19.00
2023-01-01T12:34:00.646Z,19.80
2023-01-01T12:36:37.406Z,19.20
2023-01-01T12:39:14.153Z,18.90
2023-01-01T12:41:56.881Z,17.00
2023-01-01T12:44:39.011Z,18.70
2023-01-01T12:47:25.297Z,18.40
2023-01-01T12:50:05.008Z,16.80
2023-01-01T12:52:51.281Z,20.10
2023-01-01T12:55:46.880Z,18.80
2023-01-01T12:58:21.613Z,17.90
2023-01-01T13:01:20.749Z,19.10
2023-01-01T13:04:12.423Z,17.90
2023-01-01T13:09:27.693Z,16.00
2023-01-01T13:12:06.366Z,16.60
2023-01-01T13:14:41.858Z,17.00
2023-01-01T13:17:25.389Z,15.60
2023-01-01T13:19:59.507Z,13.00
2023-01-01T13:22:30.102Z,13.20
2023-01-01T13:25:08.769Z,14.90
2023-01-01T13:27:58.260Z,14.30
2023-01-01T13:30:38.170Z,14.40
2023-01-01T13:33:28.296Z,13.70
2023-01-01T13:36:08.197Z,12.90
2023-01-01T13:38:53.122Z,14.80
2023-01-01T13:41:26.678Z,13.70
2023-01-01T13:44:12.135Z,13.00
2023-01-01T13:46:42.813Z,14.60
2023-01-01T13:49:41.155Z,14.90
2023-01-01T13:52:17.869Z,14.60
2023-01-01T13:54:51.267Z,14.80
2023-01-01T13:57:49.944Z,15.20
2023-01-01T14:00:25.079Z,15.40
2023-01-01T14:02:57.450Z,15.70
2023-01-01T14:05:29.443Z,13.20
2023-01-01T14:07:57.563Z,14.60
2023-01-01T14:10:25.467Z,14.70
2023-01-01T14:12:55.203Z,14.80
2023-01-01T14:15:25.814Z,14.50
2023-01-01T14:17:58.977Z,14.50
2023-01-01T14:20:39.719Z,12.30
2023-01-01T14:23:12.121Z,14.90
2023-01-01T14:25:41.938Z,14.90
2023-01-01T14:28:22.183Z,12.60
2023-01-01T14:30:50.456Z,14.00
2023-01-01T14:33:24.043Z,14.00
2023-01-01T14:35:53.474Z,14.20
2023-01-01T14:38:30.035Z,13.20
2023-01-01T14:41:25.034Z,15.40
2023-01-01T14:43:58.623Z,14.90
2023-01-01T14:46:27.003Z,14.60
2023-01-01T14:48:58.170Z,13.40
2023-01-01T14:51:29.298Z,16.10
2023-01-01T14:54:02.118Z,15.00
2023-01-01T14:56:37.338Z,15.60
2023-01-01T14:59:23.790Z,13.60
2023-01-01T15:02:17.152Z,14.50
2023-01-01T15:04:44.842Z,16.10
2023-01-01T15:07:31.507Z,14.90
2023-01-01T15:10:01.331Z,15.20
2023-01-01T15:12:30.160Z,13.80
2023-01-01T15:14:58.087Z,13.90
2023-01-01T15:17:28.500Z,12.10
2023-01-01T15:20:20.430Z,15.40
2023-01-01T15:25:18.418Z,12.50
2023-01-01T15:27:51.084Z,14.30
2023-01-01T15:30:28.322Z,16.60
2023-01-01T15:32:56.536Z,14.40
2023-01-01T15:35:33.194Z,13.10
2023-01-01T15:38:10.086Z,14.00
2023-01-01T15:40:38.137Z,14.70
2023-01-01T15:43:14.610Z,16.50
2023-01-01T15:45:50.935Z,16.20
2023-01-01T15:48:52.128Z,15.40
2023-01-01T15:51:23.770Z,16.60
2023-01-01T15:53:51.337Z,14.20
2023-01-01T15:56:22.875Z,12.60
2023-01-01T15:58:55.154Z,13.50
2023-01-01T16:01:27.646Z,16.40
2023-01-01T16:04:07.156Z,13.20
2023-01-01T16:06:46.104Z,16.30
2023-01-01T16:09:17.374Z,17.40
2023-01-01T16:11:45.833Z,17.80
2023-01-01T16:14:13.442Z,17.30
2023-01-01T16:16:44.369Z,15.90
2023-01-01T16:19:17.646Z,19.60
2023-01-01T16:21:45.563Z,19.20
2023-01-01T16:24:15.551Z,20.30
2023-01-01T16:26:43.556Z,19.20
2023-01-01T16:29:11.686Z,18.10
2023-01-01T16:31:40.437Z,18.50
2023-01-01T16:34:11.680Z,17.40
2023-01-01T16:36:39.380Z,15.70
2023-01-01T16:39:07.050Z,17.20
2023-01-01T16:41:34.625Z,18.10
2023-01-01T16:44:02.296Z,16.00
2023-01-01T16:46:30.844Z,15.50
2023-01-01T16:48:58.491Z,18.00
2023-01-01T16:51:30.104Z,18.20
2023-01-01T16:56:25.841Z,16.90
2023-01-01T16:59:00.256Z,16.00
2023-01-01T17:01:31.437Z,17.30
2023-01-01T17:03:59.791Z,16.00
2023-01-01T17:06:27.473Z,15.30
2023-01-01T17:08:55.154Z,16.40
2023-01-01T17:11:22.807Z,15.90
2023-01-01T17:13:50.589Z,19.00
2023-01-01T17:16:27.969Z,18.70
2023-01-01T17:19:15.484Z,16.60
2023-01-01T17:21:44.601Z,16.60
2023-01-01T17:24:12.659Z,19.90
2023-01-01T17:26:40.323Z,18.30
2023-01-01T17:29:07.951Z,21.00
2023-01-01T17:31:36.101Z,20.30
2023-01-01T17:34:04.418Z,15.50
2023-01-01T17:36:32.062Z,17.00
2023-01-01T17:38:59.721Z,18.20
2023-01-01T17:41:27.348Z,17.50
2023-01-01T17:43:56.366Z,17.90
2023-01-01T17:46:28.958Z,16.60
2023-01-01T17:48:57.244Z,17.20
2023-01-01T17:51:25.056Z,19.30
2023-01-01T17:53:56.420Z,13.90
2023-01-01T17:56:24.814Z,16.70
2023-01-01T17:58:53.705Z,19.80
2023-01-01T18:01:21.373Z,18.40
2023-01-01T18:03:51.715Z,18.00
2023-01-01T18:06:21.076Z,16.10
2023-01-01T18:08:54.220Z,16.70
2023-01-01T18:11:21.990Z,16.20
2023-01-01T18:13:49.671Z,18.00
2023-01-01T18:16:17.371Z,17.10
2023-01-01T18:18:45.066Z,17.80
2023-01-01T18:21:16.125Z,17.40
2023-01-01T18:23:43.808Z,18.40
2023-01-01T18:26:11.931Z,16.00
2023-01-01T18:28:39.815Z,17.80
2023-01-01T18:31:10.285Z,18.10
2023-01-01T18:33:38.213Z,17.90
2023-01-01T18:36:14.625Z,18.40
2023-01-01T18:38:46.709Z,18.80
2023-01-01T18:41:23.741Z,16.10
2023-01-01T18:43:51.432Z,20.20
2023-01-01T18:46:22.631Z,20.00
2023-01-01T18:48:55.396Z,17.50
2023-01-01T18:51:26.555Z,19.70
2023-01-01T18:53:59.154Z,19.80
2023-01-01T18:56:28.149Z,16.80
2023-01-01T18:58:57.055Z,18.50
2023-01-01T19:01:25.149Z,18.60
2023-01-01T19:03:59.295Z,18.40
2023-01-01T19:06:26.999Z,16.90
2023-01-01T19:09:11.810Z,16.60
2023-01-01T19:11:41.332Z,18.30
2023-01-01T19:14:18.340Z,16.70
2023-01-01T19:16:47.691Z,16.10
2023-01-01T19:19:24.286Z,18.00
2023-01-01T19:22:14.582Z,18.90
2023-01-01T19:24:44.099Z,18.00
2023-01-01T19:27:18.703Z,17.20
2023-01-01T19:29:47.956Z,16.80
2023-01-01T19:32:16.187Z,18.30
2023-01-01T19:34:43.859Z,17.50
2023-01-01T19:37:11.601Z,18.50
2023-01-01T19:39:39.287Z,17.30
2023-01-01T19:42:07.127Z,18.30
2023-01-01T19:44:36.011Z,16.90
2023-01-01T19:47:05.097Z,19.00
2023-01-01T19:49:32.846Z,18.70
2023-01-01T19:52:00.472Z,18.40
2023-01-01T19:54:28.147Z,18.60
2023-01-01T19:56:55.796Z,20.40
2023-01-01T19:59:27.793Z,18.80
2023-01-01T20:02:34.920Z,17.50
2023-01-01T20:04:48.487Z,19.30
2023-01-01T20:07:16.267Z,18.90
2023-01-01T20:09:44.111Z,20.40
2023-01-01T20:12:11.688Z,18.80
2023-01-01T20:14:39.455Z,19.00
2023-01-01T20:17:07.098Z,20.00
2023-01-01T20:19:34.696Z,18.40
2023-01-01T20:22:02.338Z,19.30
2023-01-01T20:24:30.035Z,19.30
2023-01-01T20:26:57.760Z,19.50
2023-01-01T20:29:25.638Z,19.10
2023-01-01T20:31:53.910Z,16.60
2023-01-01T20:34:22.524Z,17.70
2023-01-01T20:36:50.154Z,18.80
2023-01-01T20:39:17.783Z,20.80
2023-01-01T20:41:45.453Z,19.40
2023-01-01T20:44:13.147Z,18.20
2023-01-01T20:46:40.787Z,20.10
2023-01-01T20:49:08.528Z,19.60
2023-01-01T20:51:36.135Z,21.00
2023-01-01T20:54:03.794Z,21.00
2023-01-01T20:56:31.629Z,19.90
2023-01-01T20:59:02.089Z,21.60
2023-01-01T21:01:35.470Z,21.70
2023-01-01T21:04:03.123Z,20.70
2023-01-01T21:06:30.728Z,18.40
2023-01-01T21:08:58.419Z,18.30
2023-01-01T21:11:26.267Z,19.80
2023-01-01T21:13:53.926Z,18.60
2023-01-01T21:16:41.277Z,19.60
2023-01-01T21:19:09.912Z,20.20
2023-01-01T21:21:44.926Z,20.80
2023-01-01T21:24:22.733Z,23.90
2023-01-01T21:26:53.393Z,18.10
2023-01-01T21:29:25.840Z,20.00
2023-01-01T21:32:02.888Z,20.60
2023-01-01T21:34:37.025Z,20.20
2023-01-01T21:37:16.697Z,18.90
2023-01-01T21:39:44.485Z,20.10
2023-01-01T21:42:23.800Z,18.30
2023-01-01T21:44:57.705Z,17.20
2023-01-01T21:47:26.007Z,19.50
2023-01-01T21:49:56.259Z,20.30
2023-01-01T21:52:24.929Z,19.40
2023-01-01T21:54:52.545Z,19.80
2023-01-01T21:57:24.496Z,19.50
2023-01-01T21:59:52.317Z,20.00
2023-01-01T22:02:38.044Z,18.50
2023-01-01T22:05:32.111Z,19.50
2023-01-01T22:08:24.909Z,21.70
2023-01-01T22:10:52.621Z,19.70
2023-01-01T22:13:22.165Z,17.90
2023-01-01T22:15:49.744Z,20.50
2023-01-01T22:18:28.178Z,19.30
2023-01-01T22:20:56.340Z,20.00
2023-01-01T22:23:40.694Z,20.40
2023-01-01T22:26:24.845Z,19.30
2023-01-01T22:28:59.713Z,18.50
2023-01-01T22:31:31.107Z,20.00
2023-01-01T22:34:01.222Z,20.70
2023-01-01T22:36:33.657Z,17.80
2023-01-01T22:39:03.214Z,18.50
2023-01-01T22:41:30.865Z,20.30
2023-01-01T22:44:02.478Z,20.90
2023-01-01T22:49:13.983Z,18.10
2023-01-01T22:51:43.368Z,17.20
2023-01-01T22:54:11.063Z,19.60
2023-01-01T22:56:38.741Z,19.50
2023-01-01T22:59:06.434Z,20.20
2023-01-01T23:01:34.211Z,19.10
2023-01-01T23:04:01.897Z,21.00
2023-01-01T23:06:29.712Z,21.00
2023-01-01T23:08:57.748Z,21.30
2023-01-01T23:11:25.496Z,18.70
2023-01-01T23:13:53.112Z,20.10
2023-01-01T23:16:20.939Z,19.50
2023-01-01T23:18:48.604Z,19.80
2023-01-01T23:21:27.097Z,20.00
2023-01-01T23:23:57.497Z,20.90
2023-01-01T23:26:26.076Z,19.90
2023-01-01T23:28:55.354Z,20.00
2023-01-01T23:31:27.795Z,20.70
2023-01-01T23:33:56.896Z,20.20
2023-01-01T23:36:26.526Z,19.60
2023-01-01T23:38:54.170Z,19.90
2023-01-01T23:41:21.841Z,18.40
2023-01-01T23:43:49.985Z,19.50
2023-01-01T23:46:18.667Z,18.50
2023-01-01T23:48:47.827Z,20.80
2023-01-01T23:51:17.046Z,19.60
2023-01-01T23:53:45.034Z,22.40
2023-01-01T23:56:12.772Z,19.90
2023-01-01T23:58:40.477Z,19.40
